Time;durP1;ratioP1;P1;durP2;ratioP2;P2;SDS_P1;SDS_P2;PMS_P1;PMS_P2;Temp;Humidity;BMP_temperature;BMP_pressure;BME280_temperature;BME280_humidity;BME280_pressure;Samples;Min_cycle;Max_cycle;Signal;HPM_P1;HPM_P2
2023/12/30 00:00:46;;;;;;;11.00;10.48;;;;;;;;;;5071131;28;20029;-61
2023/12/30 00:03:11;;;;;;;10.65;10.15;;;;;;;;;;5065657;28;20526;-60
2023/12/30 00:05:36;;;;;;;11.52;10.93;;;;;;;;;;5070808;28;20031;-60
2023/12/30 00:08:02;;;;;;;11.57;10.98;;;;;;;;;;5057974;28;20017;-60
2023/12/30 00:10:28;;;;;;;10.95;10.45;;;;;;;;;;5068183;28;20039;-60
2023/12/30 00:12:53;;;;;;;10.30;9.80;;;;;;;;;;5070748;28;20036;-61
2023/12/30 00:15:20;;;;;;;10.40;9.90;;;;;;;;;;5071102;28;20082;-60
2023/12/30 00:17:46;;;;;;;10.80;10.30;;;;;;;;;;5076958;28;20052;-61
2023/12/30 00:20:13;;;;;;;10.30;9.80;;;;;;;;;;5071008;28;20028;-60
2023/12/30 00:22:39;;;;;;;11.45;10.85;;;;;;;;;;5066504;28;20034;-61
2023/12/30 00:25:04;;;;;;;10.52;10.02;;;;;;;;;;5069121;28;20032;-61
2023/12/30 00:27:29;;;;;;;11.90;11.25;;;;;;;;;;5067605;28;20013;-61
2023/12/30 00:29:55;;;;;;;11.00;10.50;;;;;;;;;;5068901;28;20024;-59
2023/12/30 00:32:20;;;;;;;10.68;10.18;;;;;;;;;;5076040;28;20028;-60
2023/12/30 00:34:45;;;;;;;10.93;10.43;;;;;;;;;;5066217;28;20021;-61
2023/12/30 00:37:13;;;;;;;10.35;9.85;;;;;;;;;;5069777;28;20474;-60
2023/12/30 00:39:41;;;;;;;10.57;10.07;;;;;;;;;;5069625;28;20024;-61
2023/12/30 00:42:07;;;;;;;10.57;10.07;;;;;;;;;;5070649;28;20077;-60
2023/12/30 00:44:32;;;;;;;10.98;10.48;;;;;;;;;;5070774;28;20103;-60
2023/12/30 00:46:58;;;;;;;10.55;10.05;;;;;;;;;;5067370;28;20067;-61
2023/12/30 00:49:23;;;;;;;10.90;10.40;;;;;;;;;;5075557;28;20074;-59
2023/12/30 00:51:48;;;;;;;10.60;10.10;;;;;;;;;;5070579;28;20033;-60
2023/12/30 00:54:14;;;;;;;11.05;10.50;;;;;;;;;;5068296;28;20025;-59
2023/12/30 00:56:39;;;;;;;10.82;10.32;;;;;;;;;;5070625;28;20097;-61
2023/12/30 00:59:04;;;;;;;10.85;10.35;;;;;;;;;;5069076;28;20029;-64
2023/12/30 01:01:30;;;;;;;11.50;10.90;;;;;;;;;;5067369;28;20017;-61
2023/12/30 01:03:55;;;;;;;11.60;11.00;;;;;;;;;;5063217;28;20021;-61
2023/12/30 01:06:20;;;;;;;10.50;10.00;;;;;;;;;;5075311;28;20033;-61
2023/12/30 01:08:46;;;;;;;10.93;10.43;;;;;;;;;;5072355;28;20451;-60
2023/12/30 01:11:12;;;;;;;10.55;10.05;;;;;;;;;;5067803;28;20024;-60
2023/12/30 01:13:37;;;;;;;10.40;9.90;;;;;;;;;;5068542;28;20483;-60
2023/12/30 01:16:05;;;;;;;11.55;10.95;;;;;;;;;;5068454;28;20143;-61
2023/12/30 01:18:31;;;;;;;11.48;10.88;;;;;;;;;;5074742;28;20487;-60
2023/12/30 01:20:56;;;;;;;11.50;10.90;;;;;;;;;;5070030;28;20040;-60
2023/12/30 01:23:22;;;;;;;11.02;10.52;;;;;;;;;;5062827;28;20129;-60
2023/12/30 01:25:48;;;;;;;11.27;10.68;;;;;;;;;;5070209;28;20071;-61
2023/12/30 01:28:13;;;;;;;11.02;10.52;;;;;;;;;;5074599;28;20492;-60
2023/12/30 01:30:40;;;;;;;11.13;10.52;;;;;;;;;;5074325;28;20491;-60
2023/12/30 01:33:05;;;;;;;11.20;10.60;;;;;;;;;;5063283;28;20040;-61
2023/12/30 01:35:30;;;;;;;10.77;10.27;;;;;;;;;;5073207;28;20031;-60
2023/12/30 01:37:56;;;;;;;10.75;10.25;;;;;;;;;;5073975;28;20035;-61
2023/12/30 01:40:21;;;;;;;11.02;10.50;;;;;;;;;;5074453;28;20035;-59
2023/12/30 01:42:47;;;;;;;10.50;10.00;;;;;;;;;;5071261;28;20511;-61
2023/12/30 01:45:12;;;;;;;10.55;10.05;;;;;;;;;;5072794;28;20525;-61
2023/12/30 01:47:38;;;;;;;11.02;10.50;;;;;;;;;;5070467;28;20074;-60
2023/12/30 01:50:04;;;;;;;11.00;10.50;;;;;;;;;;5072807;28;20020;-61
2023/12/30 01:52:30;;;;;;;10.75;10.25;;;;;;;;;;5081336;28;20028;-60
2023/12/30 01:54:55;;;;;;;10.98;10.48;;;;;;;;;;5073599;28;20103;-61
2023/12/30 01:57:21;;;;;;;11.77;11.18;;;;;;;;;;5072346;28;20399;-60
2023/12/30 01:59:47;;;;;;;11.60;11.00;;;;;;;;;;5067060;28;20024;-60
2023/12/30 02:02:13;;;;;;;11.30;10.70;;;;;;;;;;5079177;28;20024;-60
2023/12/30 02:04:38;;;;;;;10.85;10.35;;;;;;;;;;5069770;28;20081;-61
2023/12/30 02:07:04;;;;;;;11.20;10.60;;;;;;;;;;5071383;28;20123;-61
2023/12/30 02:09:29;;;;;;;10.88;10.38;;;;;;;;;;5071688;28;20059;-60
2023/12/30 02:11:54;;;;;;;10.50;10.00;;;;;;;;;;5073302;28;20023;-60
2023/12/30 02:14:26;;;;;;;10.75;10.25;;;;;;;;;;5071984;28;20028;-61
2023/12/30 02:16:52;;;;;;;10.30;9.80;;;;;;;;;;5067360;28;20055;-61
2023/12/30 02:19:17;;;;;;;10.52;10.02;;;;;;;;;;5077705;28;20021;-60
2023/12/30 02:21:43;;;;;;;10.68;10.18;;;;;;;;;;5070022;28;20067;-61
2023/12/30 02:24:08;;;;;;;10.80;10.30;;;;;;;;;;5076259;28;20529;-61
2023/12/30 02:26:33;;;;;;;11.07;10.50;;;;;;;;;;5071528;28;20044;-60
2023/12/30 02:28:59;;;;;;;10.60;10.10;;;;;;;;;;5075051;28;20028;-60
2023/12/30 02:31:24;;;;;;;11.32;10.73;;;;;;;;;;5069149;28;20051;-65
2023/12/30 02:33:49;;;;;;;10.50;10.00;;;;;;;;;;5068507;28;20017;-60
2023/12/30 02:36:15;;;;;;;10.60;10.10;;;;;;;;;;5061227;28;20120;-60
2023/12/30 02:38:40;;;;;;;10.60;10.10;;;;;;;;;;5072932;28;20028;-61
2023/12/30 02:41:05;;;;;;;10.65;10.15;;;;;;;;;;5066438;28;20103;-61
2023/12/30 02:43:31;;;;;;;10.35;9.85;;;;;;;;;;5072723;28;20387;-61
2023/12/30 02:45:57;;;;;;;10.98;10.45;;;;;;;;;;5074493;28;20029;-59
2023/12/30 02:48:22;;;;;;;10.57;10.07;;;;;;;;;;5066186;28;20024;-61
2023/12/30 02:50:47;;;;;;;10.40;9.90;;;;;;;;;;5068181;28;20024;-60
2023/12/30 02:53:13;;;;;;;10.75;10.25;;;;;;;;;;5071489;28;20109;-60
2023/12/30 02:55:38;;;;;;;10.75;10.25;;;;;;;;;;5073388;28;20419;-61
2023/12/30 02:58:03;;;;;;;10.70;10.20;;;;;;;;;;5070186;28;20440;-61
2023/12/30 03:00:28;;;;;;;10.73;10.23;;;;;;;;;;5067231;28;20041;-61
2023/12/30 03:02:54;;;;;;;10.60;10.10;;;;;;;;;;5076144;28;20024;-61
2023/12/30 03:05:19;;;;;;;10.57;10.07;;;;;;;;;;5069391;28;20020;-61
2023/12/30 03:07:44;;;;;;;10.48;9.98;;;;;;;;;;5069735;28;20132;-60
2023/12/30 03:10:10;;;;;;;10.65;10.15;;;;;;;;;;5071684;28;20021;-61
2023/12/30 03:12:35;;;;;;;10.48;9.98;;;;;;;;;;5071365;28;20484;-61
2023/12/30 03:15:00;;;;;;;11.05;10.50;;;;;;;;;;5065549;28;20120;-61
2023/12/30 03:17:26;;;;;;;10.77;10.27;;;;;;;;;;5071537;28;20055;-61
2023/12/30 03:19:51;;;;;;;11.07;10.50;;;;;;;;;;5070678;28;20028;-61
2023/12/30 03:22:16;;;;;;;11.13;10.52;;;;;;;;;;5068039;28;20050;-61
2023/12/30 03:24:42;;;;;;;10.52;10.02;;;;;;;;;;5071870;28;20024;-61
2023/12/30 03:27:08;;;;;;;10.90;10.40;;;;;;;;;;5070436;28;20035;-61
2023/12/30 03:29:33;;;;;;;10.68;10.18;;;;;;;;;;5071823;28;20073;-61
2023/12/30 03:31:58;;;;;;;10.82;10.32;;;;;;;;;;5070151;28;20036;-57
2023/12/30 03:34:24;;;;;;;10.40;9.90;;;;;;;;;;5072579;28;20073;-61
2023/12/30 03:36:49;;;;;;;11.65;11.05;;;;;;;;;;5069386;28;20029;-60
2023/12/30 03:39:14;;;;;;;10.93;10.43;;;;;;;;;;5066639;28;20434;-62
2023/12/30 03:41:40;;;;;;;11.13;10.63;;;;;;;;;;5070557;28;20016;-61
2023/12/30 03:44:05;;;;;;;11.20;10.60;;;;;;;;;;5071755;28;20051;-62
2023/12/30 03:46:30;;;;;;;11.30;10.70;;;;;;;;;;5070871;28;20043;-61
2023/12/30 03:48:56;;;;;;;11.65;11.05;;;;;;;;;;5062955;28;20025;-60
2023/12/30 03:51:21;;;;;;;11.43;10.82;;;;;;;;;;5068701;28;20060;-61
2023/12/30 03:53:47;;;;;;;10.77;10.27;;;;;;;;;;5077449;28;20495;-61
2023/12/30 03:56:13;;;;;;;10.82;10.32;;;;;;;;;;5071017;28;20123;-62
2023/12/30 03:58:38;;;;;;;11.23;10.63;;;;;;;;;;5067087;28;20116;-61
2023/12/30 04:01:03;;;;;;;10.88;10.38;;;;;;;;;;5068881;28;20043;-60
2023/12/30 04:03:29;;;;;;;10.65;10.15;;;;;;;;;;5076520;28;20047;-61
2023/12/30 04:05:54;;;;;;;11.52;10.93;;;;;;;;;;5064077;28;20028;-60
2023/12/30 04:08:19;;;;;;;10.85;10.35;;;;;;;;;;5070763;28;20027;-60
2023/12/30 04:10:45;;;;;;;11.00;10.50;;;;;;;;;;5068591;28;20024;-60
2023/12/30 04:13:10;;;;;;;11.45;10.85;;;;;;;;;;5070356;28;20028;-60
2023/12/30 04:15:36;;;;;;;11.55;10.95;;;;;;;;;;5065946;28;20413;-61
2023/12/30 04:18:02;;;;;;;11.40;10.80;;;;;;;;;;5066874;28;20053;-61
2023/12/30 04:20:27;;;;;;;11.88;11.27;;;;;;;;;;5071535;28;20029;-61
2023/12/30 04:22:54;;;;;;;11.00;10.50;;;;;;;;;;5069308;28;20038;-61
2023/12/30 04:25:20;;;;;;;11.27;10.77;;;;;;;;;;5069626;28;20020;-60
2023/12/30 04:27:45;;;;;;;11.65;11.05;;;;;;;;;;5064846;28;20537;-61
2023/12/30 04:30:11;;;;;;;12.75;12.05;;;;;;;;;;5062584;28;20475;-61
2023/12/30 04:32:36;;;;;;;11.10;10.57;;;;;;;;;;5064474;28;20063;-61
2023/12/30 04:35:03;;;;;;;12.07;11.48;;;;;;;;;;5069294;28;20035;-61
2023/12/30 04:37:28;;;;;;;11.68;11.07;;;;;;;;;;5072421;28;20039;-61
2023/12/30 04:39:54;;;;;;;11.38;10.77;;;;;;;;;;5070387;28;20061;-61
2023/12/30 04:42:19;;;;;;;11.27;10.68;;;;;;;;;;5068500;28;20029;-61
2023/12/30 04:44:45;;;;;;;11.60;11.00;;;;;;;;;;5069866;28;20040;-61
2023/12/30 04:47:10;;;;;;;11.02;10.52;;;;;;;;;;5072946;28;20028;-61
2023/12/30 04:49:36;;;;;;;11.35;10.75;;;;;;;;;;5068965;28;20024;-60
2023/12/30 04:52:01;;;;;;;11.05;10.55;;;;;;;;;;5071296;28;20111;-61
2023/12/30 04:54:26;;;;;;;11.13;10.60;;;;;;;;;;5076772;28;20054;-62
2023/12/30 04:56:52;;;;;;;10.93;10.43;;;;;;;;;;5061684;28;20032;-61
2023/12/30 04:59:17;;;;;;;10.60;10.10;;;;;;;;;;5078546;28;20020;-62
2023/12/30 05:01:42;;;;;;;11.35;10.75;;;;;;;;;;5066914;28;20017;-61
2023/12/30 05:04:08;;;;;;;12.35;11.65;;;;;;;;;;5066486;28;20104;-62
2023/12/30 05:06:33;;;;;;;11.32;10.73;;;;;;;;;;5072776;28;20013;-60
2023/12/30 05:09:00;;;;;;;11.23;10.70;;;;;;;;;;5068581;28;20488;-61
2023/12/30 05:11:26;;;;;;;11.02;10.52;;;;;;;;;;5061569;28;20433;-61
2023/12/30 05:13:51;;;;;;;11.35;10.75;;;;;;;;;;5062572;28;20116;-61
2023/12/30 05:16:17;;;;;;;10.95;10.45;;;;;;;;;;5057951;28;20033;-61
2023/12/30 05:18:42;;;;;;;10.55;10.05;;;;;;;;;;5057781;28;20393;-62
2023/12/30 05:21:14;;;;;;;10.50;10.00;;;;;;;;;;5074325;28;20054;-61
2023/12/30 05:23:40;;;;;;;10.77;10.27;;;;;;;;;;5062299;28;20070;-62
2023/12/30 05:26:05;;;;;;;11.07;10.55;;;;;;;;;;5073525;28;20102;-61
2023/12/30 05:28:31;;;;;;;10.73;10.23;;;;;;;;;;5064591;28;20060;-61
2023/12/30 05:30:56;;;;;;;10.90;10.40;;;;;;;;;;5064916;28;20025;-61
2023/12/30 05:33:21;;;;;;;10.93;10.43;;;;;;;;;;5063952;28;20028;-61
2023/12/30 05:35:47;;;;;;;11.18;10.57;;;;;;;;;;5065505;28;20477;-61
2023/12/30 05:38:12;;;;;;;11.00;10.40;;;;;;;;;;5063825;28;20454;-61
2023/12/30 05:40:38;;;;;;;11.45;10.85;;;;;;;;;;5070930;28;20068;-61
2023/12/30 05:43:04;;;;;;;11.05;10.50;;;;;;;;;;5070812;28;20134;-62
2023/12/30 05:45:29;;;;;;;10.80;10.30;;;;;;;;;;5068088;28;20104;-61
2023/12/30 05:47:54;;;;;;;11.18;10.57;;;;;;;;;;5065431;28;20029;-60
2023/12/30 05:50:20;;;;;;;10.35;9.85;;;;;;;;;;5067649;28;20028;-61
2023/12/30 05:52:45;;;;;;;10.43;9.93;;;;;;;;;;5069529;28;20024;-61
2023/12/30 05:55:10;;;;;;;11.10;10.52;;;;;;;;;;5074810;28;20103;-60
2023/12/30 05:57:36;;;;;;;10.48;9.98;;;;;;;;;;5066844;28;20048;-60
2023/12/30 06:00:01;;;;;;;10.80;10.30;;;;;;;;;;5063894;28;20059;-61
2023/12/30 06:02:26;;;;;;;11.10;10.50;;;;;;;;;;5068166;28;20202;-61
2023/12/30 06:04:52;;;;;;;10.70;10.20;;;;;;;;;;5067548;28;20052;-61
2023/12/30 06:07:17;;;;;;;10.80;10.30;;;;;;;;;;5063688;28;20027;-61
2023/12/30 06:09:42;;;;;;;11.07;10.48;;;;;;;;;;5068936;28;20024;-61
2023/12/30 06:12:08;;;;;;;10.50;10.00;;;;;;;;;;5068685;28;20651;-61
2023/12/30 06:14:36;;;;;;;10.57;10.07;;;;;;;;;;5072091;28;20116;-61
2023/12/30 06:17:02;;;;;;;10.50;10.00;;;;;;;;;;5065840;28;20033;-61
2023/12/30 06:19:27;;;;;;;10.00;9.55;;;;;;;;;;5074524;28;20024;-60
2023/12/30 06:21:53;;;;;;;10.27;9.77;;;;;;;;;;5073429;28;20031;-61
2023/12/30 06:24:18;;;;;;;10.40;9.90;;;;;;;;;;5064654;28;20361;-62
2023/12/30 06:26:44;;;;;;;10.77;10.27;;;;;;;;;;5069856;28;20021;-60
2023/12/30 06:29:10;;;;;;;10.75;10.25;;;;;;;;;;5069252;28;20036;-62
2023/12/30 06:31:41;;;;;;;10.30;9.80;;;;;;;;;;5071089;28;20025;-61
2023/12/30 06:34:07;;;;;;;10.02;9.52;;;;;;;;;;5069946;28;20035;-62
2023/12/30 06:36:32;;;;;;;10.75;10.25;;;;;;;;;;5071425;28;20024;-61
2023/12/30 06:38:57;;;;;;;10.63;10.13;;;;;;;;;;5073425;28;20021;-60
2023/12/30 06:41:24;;;;;;;10.40;9.90;;;;;;;;;;5068291;28;20025;-61
2023/12/30 06:43:49;;;;;;;10.55;10.05;;;;;;;;;;5064297;28;20032;-61
2023/12/30 06:46:17;;;;;;;11.05;10.55;;;;;;;;;;5072903;28;20028;-62
2023/12/30 06:48:42;;;;;;;10.30;9.82;;;;;;;;;;5075573;28;20163;-61
2023/12/30 06:51:11;;;;;;;11.05;10.55;;;;;;;;;;5069023;28;20111;-62
2023/12/30 06:53:37;;;;;;;10.82;10.32;;;;;;;;;;5072666;28;20024;-62
2023/12/30 06:56:03;;;;;;;10.82;10.32;;;;;;;;;;5065164;28;20547;-63
2023/12/30 06:58:29;;;;;;;10.93;10.43;;;;;;;;;;5069434;28;20032;-61
2023/12/30 07:00:54;;;;;;;11.85;11.35;;;;;;;;;;5068284;28;20032;-62
2023/12/30 07:03:20;;;;;;;11.50;11.00;;;;;;;;;;5071592;28;20028;-62
2023/12/30 07:05:45;;;;;;;11.63;11.13;;;;;;;;;;5060941;28;20024;-62
2023/12/30 07:08:10;;;;;;;11.75;11.25;;;;;;;;;;5065384;28;20066;-61
2023/12/30 07:10:36;;;;;;;12.07;11.57;;;;;;;;;;5074015;28;20108;-62
2023/12/30 07:13:01;;;;;;;12.15;11.65;;;;;;;;;;5066734;28;20476;-61
2023/12/30 07:15:27;;;;;;;12.18;11.68;;;;;;;;;;5068940;28;20032;-63
2023/12/30 07:17:52;;;;;;;13.07;12.48;;;;;;;;;;5068770;28;20055;-62
2023/12/30 07:20:18;;;;;;;12.85;12.25;;;;;;;;;;5069094;28;20455;-62
2023/12/30 07:22:43;;;;;;;13.65;13.05;;;;;;;;;;5061513;28;20116;-60
2023/12/30 07:25:09;;;;;;;12.40;11.80;;;;;;;;;;5069647;28;20039;-62
2023/12/30 07:27:34;;;;;;;12.55;11.95;;;;;;;;;;5072988;28;20020;-62
2023/12/30 07:30:00;;;;;;;13.60;13.00;;;;;;;;;;5064492;28;20035;-62
2023/12/30 07:32:25;;;;;;;13.07;12.48;;;;;;;;;;5063603;28;20021;-61
2023/12/30 07:34:50;;;;;;;13.27;12.68;;;;;;;;;;5063938;28;20492;-61
2023/12/30 07:37:17;;;;;;;13.02;12.43;;;;;;;;;;5067484;28;20555;-62
2023/12/30 07:39:43;;;;;;;12.85;12.25;;;;;;;;;;5059781;28;20103;-61
2023/12/30 07:42:08;;;;;;;12.77;12.18;;;;;;;;;;5061838;28;20107;-62
2023/12/30 07:44:37;;;;;;;13.10;12.50;;;;;;;;;;5070979;28;20025;-60
2023/12/30 07:47:03;;;;;;;13.00;12.40;;;;;;;;;;5071899;28;20064;-62
2023/12/30 07:49:28;;;;;;;13.00;12.40;;;;;;;;;;5064967;28;20067;-62
2023/12/30 07:51:54;;;;;;;12.82;12.23;;;;;;;;;;5065334;28;20072;-62
2023/12/30 07:54:19;;;;;;;12.90;12.30;;;;;;;;;;5058566;28;20036;-62
2023/12/30 07:56:44;;;;;;;13.20;12.60;;;;;;;;;;5066720;28;20040;-62
2023/12/30 07:59:11;;;;;;;13.10;12.50;;;;;;;;;;5069781;28;20028;-62
2023/12/30 08:01:40;;;;;;;13.40;12.80;;;;;;;;;;5068661;28;20122;-62
2023/12/30 08:04:06;;;;;;;13.60;13.00;;;;;;;;;;5057002;28;20120;-61
2023/12/30 08:06:31;;;;;;;13.30;12.70;;;;;;;;;;5066578;28;20104;-62
2023/12/30 08:08:56;;;;;;;13.05;12.45;;;;;;;;;;5062409;28;20095;-62
2023/12/30 08:11:22;;;;;;;13.48;12.88;;;;;;;;;;5063432;28;20127;-63
2023/12/30 08:13:47;;;;;;;13.15;12.55;;;;;;;;;;5058165;28;20099;-62
2023/12/30 08:16:12;;;;;;;13.07;12.48;;;;;;;;;;5060723;28;20056;-63
2023/12/30 08:18:38;;;;;;;13.02;12.43;;;;;;;;;;5061808;28;20051;-62
2023/12/30 08:21:03;;;;;;;13.30;12.70;;;;;;;;;;5064344;28;20035;-61
2023/12/30 08:23:28;;;;;;;13.20;12.60;;;;;;;;;;5061623;28;20384;-61
2023/12/30 08:25:55;;;;;;;14.13;13.52;;;;;;;;;;5062047;28;20048;-63
2023/12/30 08:28:20;;;;;;;13.60;13.00;;;;;;;;;;5062092;28;20101;-62
2023/12/30 08:30:46;;;;;;;13.20;12.60;;;;;;;;;;5066216;28;20632;-62
2023/12/30 08:33:11;;;;;;;13.95;13.35;;;;;;;;;;5060296;28;20041;-61
2023/12/30 08:35:37;;;;;;;14.57;13.88;;;;;;;;;;5060172;28;20379;-63
2023/12/30 08:38:02;;;;;;;13.43;12.82;;;;;;;;;;5063009;28;20055;-62
2023/12/30 08:40:27;;;;;;;14.35;13.65;;;;;;;;;;5060681;28;20032;-62
2023/12/30 08:42:53;;;;;;;13.50;12.90;;;;;;;;;;5064667;28;20021;-62
2023/12/30 08:45:18;;;;;;;12.98;12.38;;;;;;;;;;5063409;28;20032;-63
2023/12/30 08:47:47;;;;;;;13.07;12.48;;;;;;;;;;5059255;28;20025;-63
2023/12/30 08:50:12;;;;;;;13.63;13.02;;;;;;;;;;5067578;28;20029;-63
2023/12/30 08:52:38;;;;;;;13.02;12.43;;;;;;;;;;5056255;28;20063;-62
2023/12/30 08:55:09;;;;;;;13.40;12.80;;;;;;;;;;5060586;28;20070;-61
2023/12/30 08:57:36;;;;;;;13.38;12.77;;;;;;;;;;5060804;28;20033;-62
2023/12/30 09:00:05;;;;;;;13.20;12.60;;;;;;;;;;5060598;28;20708;-61
2023/12/30 09:02:31;;;;;;;13.48;12.88;;;;;;;;;;5067655;28;20078;-61
2023/12/30 09:04:56;;;;;;;13.45;12.85;;;;;;;;;;5068741;28;20029;-57
2023/12/30 09:07:22;;;;;;;13.48;12.88;;;;;;;;;;5068611;28;20387;-66
2023/12/30 09:09:47;;;;;;;13.07;12.48;;;;;;;;;;5066730;28;20024;-59
2023/12/30 09:12:12;;;;;;;13.18;12.57;;;;;;;;;;5063996;28;20050;-61
2023/12/30 09:14:38;;;;;;;13.35;12.75;;;;;;;;;;5069321;28;20091;-61
2023/12/30 09:17:03;;;;;;;13.27;12.68;;;;;;;;;;5061821;28;20561;-60
2023/12/30 09:19:28;;;;;;;13.05;12.45;;;;;;;;;;5063930;28;20059;-61
2023/12/30 09:21:54;;;;;;;13.15;12.55;;;;;;;;;;5066556;28;20016;-61
2023/12/30 09:24:19;;;;;;;13.93;13.25;;;;;;;;;;5062789;28;20074;-61
2023/12/30 09:26:45;;;;;;;13.52;12.93;;;;;;;;;;5069236;28;20066;-60
2023/12/30 09:29:10;;;;;;;12.90;12.30;;;;;;;;;;5066422;28;20025;-61
2023/12/30 09:31:36;;;;;;;12.57;11.98;;;;;;;;;;5070521;28;20105;-62
2023/12/30 09:34:01;;;;;;;12.90;12.30;;;;;;;;;;5067948;28;20537;-60
2023/12/30 09:36:28;;;;;;;13.02;12.43;;;;;;;;;;5061440;28;20032;-62
2023/12/30 09:38:53;;;;;;;13.10;12.50;;;;;;;;;;5069256;28;20092;-62
2023/12/30 09:41:20;;;;;;;12.88;12.27;;;;;;;;;;5069980;28;20111;-61
2023/12/30 09:43:47;;;;;;;12.82;12.23;;;;;;;;;;5070512;28;20020;-60
2023/12/30 09:46:13;;;;;;;13.73;13.02;;;;;;;;;;5071658;28;20158;-60
2023/12/30 09:48:39;;;;;;;13.15;12.55;;;;;;;;;;5077071;28;20115;-60
2023/12/30 09:51:04;;;;;;;12.70;12.10;;;;;;;;;;5080506;28;20472;-60
2023/12/30 09:53:30;;;;;;;12.93;12.32;;;;;;;;;;5077278;28;20111;-61
2023/12/30 09:55:56;;;;;;;13.18;12.57;;;;;;;;;;5061929;28;20024;-60
2023/12/30 09:58:22;;;;;;;12.35;11.75;;;;;;;;;;5072296;28;20044;-61
2023/12/30 10:00:47;;;;;;;12.80;12.20;;;;;;;;;;5073851;28;20052;-61
2023/12/30 10:03:13;;;;;;;12.80;12.20;;;;;;;;;;5070713;28;20040;-60
2023/12/30 10:05:39;;;;;;;12.70;12.10;;;;;;;;;;5067597;28;20074;-61
2023/12/30 10:08:05;;;;;;;12.63;12.02;;;;;;;;;;5073106;28;20449;-61
2023/12/30 10:10:44;;;;;;;13.38;12.68;;;;;;;;;;5069199;28;20067;-61
2023/12/30 10:13:10;;;;;;;12.32;11.73;;;;;;;;;;5072994;28;20063;-61
2023/12/30 10:15:35;;;;;;;12.60;12.00;;;;;;;;;;5072141;28;20055;-61
2023/12/30 10:18:01;;;;;;;12.73;12.13;;;;;;;;;;5066089;28;20049;-61
2023/12/30 10:20:26;;;;;;;12.20;11.60;;;;;;;;;;5060783;28;20039;-61
2023/12/30 10:22:51;;;;;;;12.05;11.45;;;;;;;;;;5070577;28;20016;-60
2023/12/30 10:25:17;;;;;;;12.82;12.23;;;;;;;;;;5071356;28;20024;-62
2023/12/30 10:27:45;;;;;;;11.77;11.27;;;;;;;;;;5067730;28;20059;-59
2023/12/30 10:30:15;;;;;;;11.65;11.13;;;;;;;;;;5069724;28;20066;-61
2023/12/30 10:32:40;;;;;;;11.57;11.07;;;;;;;;;;5066332;28;20422;-60
2023/12/30 10:35:06;;;;;;;11.65;11.15;;;;;;;;;;5070915;28;20073;-61
2023/12/30 10:37:31;;;;;;;12.30;11.70;;;;;;;;;;5067583;28;20069;-60
2023/12/30 10:39:57;;;;;;;12.00;11.40;;;;;;;;;;5072459;28;20468;-61
2023/12/30 10:42:22;;;;;;;11.23;10.73;;;;;;;;;;5066378;28;20029;-61
2023/12/30 10:44:47;;;;;;;12.20;11.60;;;;;;;;;;5068570;28;20021;-62
2023/12/30 10:47:14;;;;;;;11.98;11.43;;;;;;;;;;5071869;28;20029;-61
2023/12/30 10:49:42;;;;;;;12.10;11.50;;;;;;;;;;5074203;28;20361;-61
2023/12/30 10:52:10;;;;;;;11.60;11.10;;;;;;;;;;5071364;28;20364;-60
2023/12/30 10:54:40;;;;;;;11.95;11.38;;;;;;;;;;5072871;28;20024;-61
2023/12/30 10:57:09;;;;;;;12.05;11.45;;;;;;;;;;5070839;28;20074;-62
2023/12/30 10:59:37;;;;;;;12.77;12.18;;;;;;;;;;5068505;28;20035;-61
2023/12/30 11:02:03;;;;;;;12.18;11.57;;;;;;;;;;5072591;28;20016;-61
2023/12/30 11:04:28;;;;;;;11.65;11.15;;;;;;;;;;5061679;28;20023;-61
2023/12/30 11:06:57;;;;;;;12.20;11.60;;;;;;;;;;5068345;28;20023;-62
2023/12/30 11:09:22;;;;;;;11.55;11.05;;;;;;;;;;5070658;28;20019;-62
2023/12/30 11:11:52;;;;;;;11.45;10.95;;;;;;;;;;5069733;28;20017;-61
2023/12/30 11:14:18;;;;;;;11.98;11.40;;;;;;;;;;5066386;28;20400;-61
2023/12/30 11:16:44;;;;;;;12.38;11.77;;;;;;;;;;5064849;28;20076;-61
2023/12/30 11:19:10;;;;;;;12.25;11.65;;;;;;;;;;5072159;28;20020;-61
2023/12/30 11:21:40;;;;;;;12.50;11.90;;;;;;;;;;5072031;28;20048;-61
2023/12/30 11:24:09;;;;;;;12.80;12.20;;;;;;;;;;5073952;28;20025;-61
2023/12/30 11:26:41;;;;;;;12.05;11.45;;;;;;;;;;5074336;28;20033;-60
2023/12/30 11:29:10;;;;;;;12.23;11.63;;;;;;;;;;5064423;28;20067;-61
2023/12/30 11:31:36;;;;;;;12.38;11.77;;;;;;;;;;5066464;28;20107;-58
2023/12/30 11:34:02;;;;;;;12.32;11.73;;;;;;;;;;5062598;28;20023;-61
2023/12/30 11:36:28;;;;;;;12.70;12.10;;;;;;;;;;5069916;28;20392;-61
2023/12/30 11:38:54;;;;;;;11.90;11.40;;;;;;;;;;5060911;28;20448;-62
2023/12/30 11:41:19;;;;;;;11.90;11.40;;;;;;;;;;5070480;28;20021;-60
2023/12/30 11:43:44;;;;;;;12.80;12.20;;;;;;;;;;5070277;28;20027;-61
2023/12/30 11:46:10;;;;;;;14.30;13.60;;;;;;;;;;5066034;28;20020;-61
2023/12/30 11:48:35;;;;;;;12.15;11.55;;;;;;;;;;5070820;28;20019;-62
2023/12/30 11:51:00;;;;;;;12.75;12.15;;;;;;;;;;5069559;28;20028;-61
2023/12/30 11:53:26;;;;;;;12.38;11.77;;;;;;;;;;5065362;28;20077;-62
2023/12/30 11:55:51;;;;;;;12.52;11.93;;;;;;;;;;5067516;28;20079;-63
2023/12/30 11:58:17;;;;;;;12.63;12.02;;;;;;;;;;5072975;28;20028;-62
2023/12/30 12:00:42;;;;;;;12.65;12.05;;;;;;;;;;5069500;28;20025;-62
2023/12/30 12:03:07;;;;;;;12.60;12.00;;;;;;;;;;5062797;28;20074;-62
2023/12/30 12:05:33;;;;;;;12.38;11.77;;;;;;;;;;5061656;28;20534;-61
2023/12/30 12:07:58;;;;;;;12.50;11.90;;;;;;;;;;5059427;28;20728;-63
2023/12/30 12:10:24;;;;;;;11.95;11.38;;;;;;;;;;5060169;28;20021;-61
2023/12/30 12:12:49;;;;;;;12.63;12.02;;;;;;;;;;5066643;28;20017;-61
2023/12/30 12:15:14;;;;;;;11.80;11.30;;;;;;;;;;5065067;28;20029;-60
2023/12/30 12:17:40;;;;;;;12.38;11.77;;;;;;;;;;5066704;28;20048;-62
2023/12/30 12:20:07;;;;;;;12.32;11.73;;;;;;;;;;5062679;28;20464;-61
2023/12/30 12:22:32;;;;;;;12.15;11.55;;;;;;;;;;5064373;28;20015;-61
2023/12/30 12:25:01;;;;;;;12.50;11.90;;;;;;;;;;5059294;28;20029;-61
2023/12/30 12:27:26;;;;;;;12.98;12.38;;;;;;;;;;5065057;28;20062;-61
2023/12/30 12:29:52;;;;;;;12.07;11.48;;;;;;;;;;5065065;28;20658;-62
2023/12/30 12:32:21;;;;;;;12.13;11.52;;;;;;;;;;5060195;28;20028;-62
2023/12/30 12:34:47;;;;;;;12.80;12.20;;;;;;;;;;5057791;28;20082;-62
2023/12/30 12:37:15;;;;;;;12.38;11.77;;;;;;;;;;5056777;28;20385;-61
2023/12/30 12:39:41;;;;;;;13.30;12.60;;;;;;;;;;5059033;28;20024;-61
2023/12/30 12:42:07;;;;;;;12.38;11.77;;;;;;;;;;5064423;28;20748;-61
2023/12/30 12:44:32;;;;;;;12.32;11.73;;;;;;;;;;5062322;28;20111;-61
2023/12/30 12:46:57;;;;;;;12.68;12.07;;;;;;;;;;5061765;28;20017;-62
2023/12/30 12:49:23;;;;;;;11.60;11.10;;;;;;;;;;5066512;28;20020;-61
2023/12/30 12:51:51;;;;;;;12.10;11.50;;;;;;;;;;5057684;28;20020;-63
2023/12/30 12:54:16;;;;;;;12.27;11.68;;;;;;;;;;5054287;28;20495;-61
2023/12/30 12:56:44;;;;;;;12.48;11.88;;;;;;;;;;5061303;28;20092;-61
2023/12/30 12:59:10;;;;;;;12.27;11.68;;;;;;;;;;5061241;28;20043;-60
2023/12/30 13:01:37;;;;;;;12.70;12.10;;;;;;;;;;5060685;28;20017;-62
2023/12/30 13:04:03;;;;;;;12.35;11.75;;;;;;;;;;5066595;28;20473;-62
2023/12/30 13:06:28;;;;;;;11.77;11.27;;;;;;;;;;5067046;28;20024;-61
2023/12/30 13:08:56;;;;;;;11.65;11.15;;;;;;;;;;5068527;28;20067;-63
2023/12/30 13:11:26;;;;;;;12.07;11.48;;;;;;;;;;5067930;28;20058;-62
2023/12/30 13:13:53;;;;;;;12.27;11.68;;;;;;;;;;5061547;28;20020;-62
2023/12/30 13:16:19;;;;;;;11.68;11.18;;;;;;;;;;5061128;28;20052;-62
2023/12/30 13:18:44;;;;;;;11.90;11.30;;;;;;;;;;5057850;28;20511;-63
2023/12/30 13:21:09;;;;;;;12.35;11.75;;;;;;;;;;5064514;28;20369;-61
2023/12/30 13:23:35;;;;;;;12.35;11.75;;;;;;;;;;5061297;28;20111;-63
2023/12/30 13:26:01;;;;;;;12.70;12.10;;;;;;;;;;5059732;28;20052;-61
2023/12/30 13:28:26;;;;;;;12.18;11.57;;;;;;;;;;5064077;28;20053;-62
2023/12/30 13:30:52;;;;;;;11.57;11.07;;;;;;;;;;5062032;28;20838;-62
2023/12/30 13:33:20;;;;;;;12.18;11.57;;;;;;;;;;5064145;28;20033;-61
2023/12/30 13:35:46;;;;;;;12.10;11.50;;;;;;;;;;5065608;28;20032;-62
2023/12/30 13:38:12;;;;;;;12.75;12.15;;;;;;;;;;5065598;28;20024;-61
2023/12/30 13:40:39;;;;;;;12.00;11.40;;;;;;;;;;5062583;28;20111;-61
2023/12/30 13:43:07;;;;;;;12.43;11.82;;;;;;;;;;5066033;28;20020;-61
2023/12/30 13:45:33;;;;;;;12.20;11.60;;;;;;;;;;5063337;28;20427;-63
2023/12/30 13:50:35;;;;;;;12.35;11.75;;;;;;;;;;5069480;28;20037;-62
2023/12/30 13:53:02;;;;;;;12.00;11.40;;;;;;;;;;5064566;28;20024;-61
2023/12/30 13:55:34;;;;;;;11.93;11.35;;;;;;;;;;5059105;28;20017;-62
2023/12/30 13:58:02;;;;;;;12.48;11.88;;;;;;;;;;5060749;28;20039;-62
2023/12/30 14:00:27;;;;;;;12.35;11.75;;;;;;;;;;5059845;28;20032;-62
2023/12/30 14:02:53;;;;;;;11.65;11.13;;;;;;;;;;5058183;28;20021;-61
2023/12/30 14:05:28;;;;;;;12.77;12.15;;;;;;;;;;5060310;28;20488;-62
2023/12/30 14:07:53;;;;;;;11.73;11.20;;;;;;;;;;5060081;28;20690;-62
2023/12/30 14:10:18;;;;;;;11.50;11.00;;;;;;;;;;5064689;28;20028;-62
2023/12/30 14:12:44;;;;;;;11.43;10.93;;;;;;;;;;5069043;28;20020;-63